createdAt,value
2019-05-25T00:00:31.530Z,23.91
2019-05-25T00:01:31.523Z,26.33
2019-05-25T00:02:31.537Z,25.44
2019-05-25T00:03:31.502Z,30.06
2019-05-25T00:04:31.503Z,29.13
2019-05-25T00:05:31.473Z,32.05
2019-05-25T00:06:31.465Z,30.14
2019-05-25T00:07:31.472Z,29.71
2019-05-25T00:08:31.446Z,29.30
2019-05-25T00:09:31.431Z,31.23
2019-05-25T00:10:31.418Z,27.02
2019-05-25T00:11:31.409Z,30.07
2019-05-25T00:12:31.409Z,29.33
2019-05-25T00:13:31.385Z,27.18
2019-05-25T00:14:31.373Z,28.79
2019-05-25T00:15:31.404Z,26.15
2019-05-25T00:16:31.351Z,24.52
2019-05-25T00:17:31.337Z,23.82
2019-05-25T00:18:31.325Z,22.69
2019-05-25T00:19:31.318Z,24.29
2019-05-25T00:20:31.303Z,27.82
2019-05-25T00:21:31.292Z,26.74
2019-05-25T00:22:31.300Z,27.67
2019-05-25T00:23:31.269Z,27.23
2019-05-25T00:24:31.265Z,27.53
2019-05-25T00:25:31.251Z,23.89
2019-05-25T00:26:31.257Z,23.05
2019-05-25T00:27:31.222Z,27.01
2019-05-25T00:28:31.211Z,26.49
2019-05-25T00:29:31.217Z,28.73
2019-05-25T00:30:31.189Z,28.97
2019-05-25T00:31:31.194Z,28.61
2019-05-25T00:32:31.169Z,28.47
2019-05-25T00:33:31.178Z,27.44
2019-05-25T00:34:31.156Z,31.61
2019-05-25T00:35:31.135Z,29.06
2019-05-25T00:36:31.131Z,33.12
2019-05-25T00:37:31.129Z,31.49
2019-05-25T00:38:31.099Z,33.51
2019-05-25T00:39:31.087Z,29.21
2019-05-25T00:40:31.075Z,29.62
2019-05-25T00:41:31.062Z,28.09
2019-05-25T00:42:31.069Z,30.67
2019-05-25T00:43:31.059Z,29.30
2019-05-25T00:44:31.029Z,29.53
2019-05-25T00:45:31.077Z,30.16
2019-05-25T00:46:31.005Z,31.35
2019-05-25T00:47:31.008Z,32.29
2019-05-25T00:48:30.999Z,31.49
2019-05-25T00:49:30.976Z,29.99
2019-05-25T00:50:30.966Z,29.71
2019-05-25T00:51:30.973Z,30.81
2019-05-25T00:52:30.939Z,31.30
2019-05-25T00:53:30.942Z,26.99
2019-05-25T00:54:30.918Z,27.20
2019-05-25T00:55:30.910Z,26.55
2019-05-25T00:56:30.918Z,20.25
2019-05-25T00:57:30.884Z,18.36
2019-05-25T00:58:30.875Z,12.92
2019-05-25T00:59:30.878Z,15.61
2019-05-25T01:00:30.853Z,20.27
2019-05-25T01:01:30.858Z,19.77
2019-05-25T01:02:30.866Z,21.51
2019-05-25T01:03:30.818Z,17.91
2019-05-25T01:04:30.807Z,14.03
2019-05-25T01:05:30.809Z,16.22
2019-05-25T01:06:30.783Z,17.20
2019-05-25T01:07:30.769Z,17.74
2019-05-25T01:08:30.765Z,18.33
2019-05-25T01:09:30.752Z,16.27
2019-05-25T01:10:30.737Z,13.81
2019-05-25T01:11:30.728Z,16.54
2019-05-25T01:12:30.713Z,11.18
2019-05-25T01:13:30.728Z,17.86
2019-05-25T01:14:30.710Z,12.44
2019-05-25T01:15:30.680Z,12.77
2019-05-25T01:16:30.679Z,13.34
2019-05-25T01:17:30.662Z,11.95
2019-05-25T01:18:30.652Z,9.73
2019-05-25T01:19:30.643Z,12.90
2019-05-25T01:20:30.621Z,9.25
2019-05-25T01:21:30.621Z,7.84
2019-05-25T01:22:30.619Z,9.14
2019-05-25T01:23:30.592Z,12.16
2019-05-25T01:24:43.254Z,14.20
2019-05-25T01:25:31.571Z,15.03
2019-05-25T01:26:30.558Z,7.92
2019-05-25T01:27:30.548Z,11.82
2019-05-25T01:28:30.531Z,9.25
2019-05-25T01:29:30.526Z,7.56
2019-05-25T01:30:30.515Z,9.81
2019-05-25T01:31:30.522Z,10.76
2019-05-25T01:32:30.494Z,6.07
2019-05-25T01:33:30.491Z,6.73
2019-05-25T01:34:30.481Z,7.36
2019-05-25T01:35:30.461Z,8.25
2019-05-25T01:36:30.448Z,8.62
2019-05-25T01:37:30.467Z,6.31
2019-05-25T01:38:30.416Z,9.01
2019-05-25T01:39:30.452Z,10.24
2019-05-25T01:40:30.405Z,10.08
2019-05-25T01:41:30.391Z,10.40
2019-05-25T01:42:30.400Z,8.28
2019-05-25T01:43:30.370Z,11.54
2019-05-25T01:44:30.407Z,10.10
2019-05-25T01:45:30.397Z,11.61
2019-05-25T01:46:30.358Z,15.60
2019-05-25T01:47:30.329Z,10.51
2019-05-25T01:48:30.320Z,11.99
2019-05-25T01:49:30.307Z,14.91
2019-05-25T01:50:30.299Z,16.90
2019-05-25T01:51:30.295Z,14.25
2019-05-25T01:52:30.274Z,16.00
2019-05-25T01:53:30.262Z,16.45
2019-05-25T01:54:30.257Z,17.73
2019-05-25T01:55:30.263Z,17.51
2019-05-25T01:56:30.249Z,19.48
2019-05-25T01:57:30.216Z,18.51
2019-05-25T01:58:30.202Z,20.69
2019-05-25T01:59:30.188Z,17.77
2019-05-25T02:00:30.194Z,19.14
2019-05-25T02:01:30.193Z,22.83
2019-05-25T02:02:30.158Z,23.30
2019-05-25T02:03:30.149Z,20.27
2019-05-25T02:04:30.141Z,22.41
2019-05-25T02:05:30.126Z,23.26
2019-05-25T02:06:30.132Z,22.72
2019-05-25T02:07:30.144Z,22.76
2019-05-25T02:08:30.095Z,20.66
2019-05-25T02:09:30.097Z,23.11
2019-05-25T02:10:30.070Z,23.10
2019-05-25T02:11:30.060Z,24.85
2019-05-25T02:12:30.061Z,22.49
2019-05-25T02:13:30.037Z,23.73
2019-05-25T02:14:30.027Z,19.48
2019-05-25T02:15:30.019Z,23.66
2019-05-25T02:16:30.006Z,21.53
2019-05-25T02:17:30.002Z,18.63
2019-05-25T02:18:29.993Z,21.86
2019-05-25T02:19:29.970Z,21.24
2019-05-25T02:20:29.979Z,16.17
2019-05-25T02:21:29.946Z,18.17
2019-05-25T02:22:29.942Z,17.16
2019-05-25T02:23:29.933Z,10.42
2019-05-25T02:24:29.952Z,11.10
2019-05-25T02:25:29.898Z,11.44
2019-05-25T02:26:29.890Z,11.63
2019-05-25T02:27:29.877Z,12.60
2019-05-25T02:28:29.874Z,13.39
2019-05-25T02:29:29.861Z,13.07
2019-05-25T02:30:29.849Z,10.49
2019-05-25T02:31:29.838Z,9.53
2019-05-25T02:32:29.823Z,12.64
2019-05-25T02:33:29.810Z,7.22
2019-05-25T02:34:29.805Z,10.85
2019-05-25T02:35:29.805Z,8.43
2019-05-25T02:36:29.776Z,12.42
2019-05-25T02:37:29.763Z,13.27
2019-05-25T02:38:29.753Z,13.25
2019-05-25T02:39:29.750Z,11.70
2019-05-25T02:40:29.737Z,15.05
2019-05-25T02:41:29.720Z,12.51
2019-05-25T02:42:29.714Z,11.90
2019-05-25T02:43:29.702Z,10.13
2019-05-25T02:44:29.684Z,13.45
2019-05-25T02:45:29.676Z,10.11
2019-05-25T02:46:29.680Z,6.30
2019-05-25T02:47:29.656Z,9.45
2019-05-25T02:48:29.645Z,11.45
2019-05-25T02:49:29.632Z,11.08
2019-05-25T02:50:29.616Z,12.00
2019-05-25T02:51:29.608Z,16.92
2019-05-25T02:52:29.622Z,17.61
2019-05-25T02:53:29.619Z,17.76
2019-05-25T02:54:29.578Z,19.26
2019-05-25T02:55:34.341Z,23.86
2019-05-25T02:56:30.560Z,24.02
2019-05-25T02:57:29.552Z,27.97
2019-05-25T02:58:29.526Z,26.04
2019-05-25T02:59:29.522Z,24.61
2019-05-25T03:00:29.504Z,25.51
2019-05-25T03:01:29.504Z,27.41
2019-05-25T03:02:29.487Z,26.25
2019-05-25T03:03:29.486Z,25.41
2019-05-25T03:04:29.461Z,27.16
2019-05-25T03:05:29.446Z,24.98
2019-05-25T03:06:29.464Z,26.90
2019-05-25T03:07:29.420Z,25.83
2019-05-25T03:08:29.426Z,23.28
2019-05-25T03:09:29.402Z,25.93
2019-05-25T03:10:29.396Z,23.28
2019-05-25T03:11:29.392Z,21.24
2019-05-25T03:12:29.365Z,21.42
2019-05-25T03:13:29.362Z,20.09
2019-05-25T03:14:29.363Z,21.32
2019-05-25T03:15:29.332Z,17.10
2019-05-25T03:16:29.332Z,15.61
2019-05-25T03:17:29.330Z,16.53
2019-05-25T03:18:29.303Z,18.60
2019-05-25T03:19:29.286Z,18.24
2019-05-25T03:20:29.275Z,21.48
2019-05-25T03:21:29.268Z,20.85
2019-05-25T03:22:29.266Z,20.94
2019-05-25T03:23:29.246Z,26.36
2019-05-25T03:24:29.252Z,24.29
2019-05-25T03:25:29.238Z,26.75
2019-05-25T03:26:29.208Z,26.50
2019-05-25T03:27:29.199Z,27.62
2019-05-25T03:28:29.185Z,28.56
2019-05-25T03:29:29.182Z,29.22
2019-05-25T03:30:29.271Z,29.39
2019-05-25T03:31:29.161Z,29.39
2019-05-25T03:32:29.144Z,30.05
2019-05-25T03:33:29.129Z,28.39
2019-05-25T03:34:29.114Z,30.97
2019-05-25T03:35:29.112Z,32.65
2019-05-25T03:36:29.118Z,29.88
2019-05-25T03:37:29.077Z,27.68
2019-05-25T03:38:29.072Z,31.13
2019-05-25T03:39:29.061Z,31.61
2019-05-25T03:40:29.049Z,32.07
2019-05-25T03:41:29.043Z,31.80
2019-05-25T03:42:29.026Z,32.44
2019-05-25T03:43:29.014Z,32.61
2019-05-25T03:44:29.010Z,33.58
2019-05-25T03:45:29.005Z,32.97
2019-05-25T03:46:28.979Z,33.68
2019-05-25T03:47:28.987Z,33.64
2019-05-25T03:48:28.961Z,34.59
2019-05-25T03:49:28.948Z,34.54
2019-05-25T03:50:28.940Z,34.20
2019-05-25T03:51:28.924Z,35.78
2019-05-25T03:52:28.924Z,34.02
2019-05-25T03:53:28.932Z,33.85
2019-05-25T03:54:28.890Z,33.98
2019-05-25T03:55:28.893Z,34.59
2019-05-25T03:56:28.874Z,33.87
2019-05-25T03:57:28.865Z,32.84
2019-05-25T03:58:28.858Z,32.05
2019-05-25T03:59:28.834Z,34.37
2019-05-25T04:00:28.828Z,33.34
2019-05-25T04:01:28.814Z,33.91
2019-05-25T04:02:28.827Z,32.64
2019-05-25T04:03:28.796Z,33.79
2019-05-25T04:04:28.794Z,32.11
2019-05-25T04:05:28.770Z,32.73
2019-05-25T04:06:28.765Z,33.85
2019-05-25T04:07:28.749Z,32.88
2019-05-25T04:08:28.736Z,32.79
2019-05-25T04:09:28.731Z,32.44
2019-05-25T04:10:28.710Z,31.53
2019-05-25T04:11:28.708Z,31.58
2019-05-25T04:12:28.697Z,30.56
2019-05-25T04:13:28.679Z,32.88
2019-05-25T04:14:28.672Z,31.21
2019-05-25T04:15:28.660Z,33.40
2019-05-25T04:16:28.646Z,32.18
2019-05-25T04:17:28.636Z,30.79
2019-05-25T04:18:28.640Z,29.22
2019-05-25T04:19:28.612Z,30.77
2019-05-25T04:20:28.608Z,31.60
2019-05-25T04:21:28.604Z,29.90
2019-05-25T04:22:28.588Z,30.70
2019-05-25T04:23:28.576Z,29.10
2019-05-25T04:24:28.577Z,29.83
2019-05-25T04:25:28.548Z,31.33
2019-05-25T04:26:28.551Z,29.64
2019-05-25T04:27:28.524Z,29.64
2019-05-25T04:28:28.517Z,29.32
2019-05-25T04:29:28.502Z,31.14
2019-05-25T04:30:28.508Z,31.51
2019-05-25T04:31:28.488Z,31.29
2019-05-25T04:32:28.491Z,32.17
2019-05-25T04:33:28.456Z,33.33
2019-05-25T04:34:28.444Z,34.54
2019-05-25T04:35:28.433Z,35.40
2019-05-25T04:36:28.442Z,34.86
2019-05-25T04:37:28.421Z,36.73
2019-05-25T04:38:28.498Z,33.78
2019-05-25T04:39:28.390Z,35.15
2019-05-25T04:40:28.378Z,38.62
2019-05-25T04:41:28.379Z,36.02
2019-05-25T04:42:28.354Z,37.13
2019-05-25T04:43:28.353Z,38.31
2019-05-25T04:44:28.333Z,37.98
2019-05-25T04:45:28.320Z,36.46
2019-05-25T04:46:28.315Z,35.39
2019-05-25T04:47:28.315Z,35.75
2019-05-25T04:48:28.294Z,35.38
2019-05-25T04:49:28.316Z,36.36
2019-05-25T04:50:28.264Z,33.92
2019-05-25T04:51:28.250Z,33.83
2019-05-25T04:52:28.247Z,38.20
2019-05-25T04:53:28.234Z,35.40
2019-05-25T04:54:28.229Z,37.31
2019-05-25T04:55:28.205Z,36.99
2019-05-25T04:56:38.788Z,40.81
2019-05-25T04:57:29.186Z,37.98
2019-05-25T04:58:28.195Z,36.54
2019-05-25T04:59:28.185Z,39.01
2019-05-25T05:00:28.163Z,40.26
2019-05-25T05:01:28.138Z,41.66
2019-05-25T05:02:28.128Z,38.93
2019-05-25T05:03:28.121Z,41.68
2019-05-25T05:04:28.106Z,46.33
2019-05-25T05:05:28.094Z,44.32
2019-05-25T05:06:28.111Z,42.23
2019-05-25T05:07:28.070Z,45.23
2019-05-25T05:08:28.063Z,47.64
2019-05-25T05:09:28.058Z,45.00
2019-05-25T05:10:28.040Z,46.30
2019-05-25T05:11:28.038Z,49.75
2019-05-25T05:12:28.031Z,48.95
2019-05-25T05:13:28.006Z,47.54
2019-05-25T05:14:27.990Z,48.52
2019-05-25T05:15:27.982Z,44.86
2019-05-25T05:16:27.974Z,49.83
2019-05-25T05:17:27.981Z,47.25
2019-05-25T05:18:27.948Z,51.17
2019-05-25T05:19:27.939Z,48.78
2019-05-25T05:20:27.934Z,48.24
2019-05-25T05:21:27.921Z,45.64
2019-05-25T05:22:27.950Z,46.79
2019-05-25T05:23:27.986Z,43.81
2019-05-25T05:24:27.875Z,46.06
2019-05-25T05:25:28.310Z,43.19
2019-05-25T05:26:28.094Z,40.79
2019-05-25T05:27:27.850Z,43.27
2019-05-25T05:28:27.850Z,41.18
2019-05-25T05:29:27.858Z,39.77
2019-05-25T05:30:27.826Z,42.93
2019-05-25T05:31:27.803Z,39.35
2019-05-25T05:32:28.154Z,37.18
2019-05-25T05:33:27.787Z,37.16
2019-05-25T05:34:27.805Z,35.57
2019-05-25T05:35:27.758Z,35.44
2019-05-25T05:36:27.749Z,36.25
2019-05-25T05:37:27.746Z,36.40
2019-05-25T05:38:27.735Z,35.28
2019-05-25T05:39:27.719Z,37.20
2019-05-25T05:40:27.747Z,38.81
2019-05-25T05:41:30.660Z,37.58
2019-05-25T05:42:27.677Z,33.96
2019-05-25T05:43:27.666Z,37.59
2019-05-25T05:44:27.653Z,37.67
2019-05-25T05:45:27.680Z,36.45
2019-05-25T05:46:27.630Z,38.63
2019-05-25T05:47:27.622Z,35.22
2019-05-25T05:48:27.685Z,31.17
2019-05-25T05:49:27.601Z,30.70
2019-05-25T05:50:27.604Z,29.57
2019-05-25T05:51:27.593Z,33.72
2019-05-25T05:52:27.563Z,34.84
2019-05-25T05:53:27.552Z,33.71
2019-05-25T05:54:27.548Z,29.39
2019-05-25T05:55:27.540Z,28.68
2019-05-25T05:56:27.536Z,26.84
2019-05-25T05:57:27.539Z,30.09
2019-05-25T05:58:27.495Z,25.32
2019-05-25T05:59:27.489Z,30.44
2019-05-25T06:00:27.579Z,37.47
2019-05-25T06:01:27.481Z,33.87
2019-05-25T06:02:27.471Z,31.90
2019-05-25T06:03:27.458Z,31.94
2019-05-25T06:04:27.451Z,33.56
2019-05-25T06:05:27.500Z,33.80
2019-05-25T06:06:27.425Z,28.56
2019-05-25T06:07:27.678Z,30.16
2019-05-25T06:08:27.381Z,32.41
2019-05-25T06:09:27.377Z,29.21
2019-05-25T06:10:27.363Z,31.86
2019-05-25T06:11:27.345Z,33.82
2019-05-25T06:12:27.351Z,35.00
2019-05-25T06:13:27.341Z,33.91
2019-05-25T06:14:27.529Z,33.96
2019-05-25T06:15:27.391Z,34.36
2019-05-25T06:16:27.295Z,34.03
2019-05-25T06:17:27.318Z,30.84
2019-05-25T06:18:27.410Z,29.78
2019-05-25T06:19:27.283Z,31.62
2019-05-25T06:20:27.249Z,28.24
2019-05-25T06:21:27.232Z,26.33
2019-05-25T06:22:27.224Z,22.60
2019-05-25T06:23:27.209Z,26.38
2019-05-25T06:24:27.218Z,26.38
2019-05-25T06:25:27.210Z,27.95
2019-05-25T06:26:27.178Z,29.37
2019-05-25T06:27:28.052Z,30.52
2019-05-25T06:28:27.159Z,30.03
2019-05-25T06:29:27.217Z,27.15
2019-05-25T06:30:27.135Z,28.38
2019-05-25T06:31:27.119Z,32.45
2019-05-25T06:32:27.109Z,29.90
2019-05-25T06:33:27.096Z,28.56
2019-05-25T06:34:27.096Z,25.46
2019-05-25T06:35:27.099Z,30.16
2019-05-25T06:36:27.236Z,30.79
2019-05-25T06:37:27.077Z,29.74
2019-05-25T06:38:27.040Z,28.49
2019-05-25T06:39:27.033Z,34.57
2019-05-25T06:40:27.021Z,30.74
2019-05-25T06:41:27.031Z,30.38
2019-05-25T06:42:27.000Z,31.60
2019-05-25T06:43:26.981Z,31.21
2019-05-25T06:44:26.972Z,29.98
2019-05-25T06:45:26.961Z,23.84
2019-05-25T06:46:26.967Z,22.69
2019-05-25T06:47:26.961Z,22.89
2019-05-25T06:48:26.964Z,27.93
2019-05-25T06:49:26.957Z,25.19
2019-05-25T06:50:26.901Z,29.06
2019-05-25T06:51:26.914Z,26.88
2019-05-25T06:52:26.898Z,27.80
2019-05-25T06:53:26.879Z,26.77
2019-05-25T06:54:26.866Z,29.05
2019-05-25T06:55:26.847Z,30.95
2019-05-25T06:56:26.831Z,32.21
2019-05-25T06:57:40.196Z,31.49
2019-05-25T06:58:27.861Z,33.42
2019-05-25T06:59:26.911Z,36.18
2019-05-25T07:00:26.792Z,37.14
2019-05-25T07:01:26.777Z,33.21
2019-05-25T07:02:26.886Z,37.62
2019-05-25T07:03:26.763Z,34.65
2019-05-25T07:04:26.776Z,31.95
2019-05-25T07:05:26.734Z,30.81
2019-05-25T07:06:26.737Z,34.36
2019-05-25T07:07:26.710Z,34.22
2019-05-25T07:08:26.702Z,31.35
2019-05-25T07:09:26.690Z,29.96
2019-05-25T07:10:26.671Z,31.36
2019-05-25T07:11:26.671Z,30.53
2019-05-25T07:12:26.656Z,32.27
2019-05-25T07:13:28.604Z,28.61
2019-05-25T07:14:26.655Z,23.62
2019-05-25T07:15:26.765Z,19.22
2019-05-25T07:16:26.653Z,28.75
2019-05-25T07:17:26.596Z,29.51
2019-05-25T07:18:26.588Z,33.72
2019-05-25T07:19:26.590Z,33.06
2019-05-25T07:20:26.577Z,30.75
2019-05-25T07:21:26.709Z,32.94
2019-05-25T07:22:26.545Z,31.62
2019-05-25T07:23:26.535Z,31.58
2019-05-25T07:24:26.524Z,33.83
2019-05-25T07:25:26.826Z,34.39
2019-05-25T07:26:26.493Z,33.66
2019-05-25T07:27:26.492Z,33.65
2019-05-25T07:28:26.475Z,37.12
2019-05-25T07:29:26.462Z,34.05
2019-05-25T07:30:26.460Z,34.72
2019-05-25T07:31:26.440Z,33.06
2019-05-25T07:32:26.450Z,36.82
2019-05-25T07:33:26.421Z,38.32
2019-05-25T07:34:26.408Z,35.37
2019-05-25T07:35:26.397Z,34.42
2019-05-25T07:36:26.402Z,37.77
2019-05-25T07:37:26.390Z,37.91
2019-05-25T07:38:26.358Z,26.02
2019-05-25T07:39:26.532Z,26.54
2019-05-25T07:40:26.525Z,24.16
2019-05-25T07:41:26.326Z,24.58
2019-05-25T07:42:26.359Z,28.56
2019-05-25T07:43:26.509Z,25.98
2019-05-25T07:44:26.296Z,28.54
2019-05-25T07:45:26.283Z,27.85
2019-05-25T07:46:26.538Z,29.19
2019-05-25T07:47:26.259Z,29.35
2019-05-25T07:48:26.453Z,29.88
2019-05-25T07:49:26.251Z,28.77
2019-05-25T07:50:26.237Z,27.35
2019-05-25T07:51:26.209Z,23.17
2019-05-25T07:52:26.213Z,29.41
2019-05-25T07:53:26.202Z,24.42
2019-05-25T07:54:26.418Z,24.24
2019-05-25T07:55:26.177Z,26.87
2019-05-25T07:56:26.181Z,26.49
2019-05-25T07:57:28.609Z,27.94
2019-05-25T07:58:26.135Z,27.68
2019-05-25T07:59:26.145Z,29.57
2019-05-25T08:00:26.127Z,24.74
2019-05-25T08:01:26.141Z,29.82
2019-05-25T08:02:26.087Z,27.35
2019-05-25T08:03:26.076Z,28.28
2019-05-25T08:04:26.075Z,28.58
2019-05-25T08:05:26.059Z,31.29
2019-05-25T08:06:26.051Z,29.87
2019-05-25T08:07:26.034Z,33.15
2019-05-25T08:08:26.019Z,32.29
2019-05-25T08:09:26.009Z,31.42
2019-05-25T08:10:25.999Z,30.43
2019-05-25T08:11:25.987Z,32.07
2019-05-25T08:12:25.975Z,33.58
2019-05-25T08:13:26.018Z,31.89
2019-05-25T08:14:26.005Z,27.44
2019-05-25T08:15:26.006Z,29.48
2019-05-25T08:16:25.989Z,33.80
2019-05-25T08:17:25.919Z,31.38
2019-05-25T08:18:25.909Z,30.88
2019-05-25T08:19:25.891Z,32.11
2019-05-25T08:20:25.893Z,30.82
2019-05-25T08:21:25.869Z,33.36
2019-05-25T08:22:25.918Z,32.34
2019-05-25T08:23:25.862Z,32.74
2019-05-25T08:24:25.865Z,28.88
2019-05-25T08:25:25.835Z,28.59
2019-05-25T08:26:25.833Z,33.73
2019-05-25T08:27:25.799Z,32.69
2019-05-25T08:28:32.665Z,32.79
2019-05-25T08:29:26.798Z,33.67
2019-05-25T08:30:25.895Z,31.31
2019-05-25T08:31:25.767Z,33.93
2019-05-25T08:32:25.771Z,34.03
2019-05-25T08:33:25.736Z,32.38
2019-05-25T08:34:25.721Z,29.63
2019-05-25T08:35:25.713Z,29.69
2019-05-25T08:36:25.707Z,26.75
2019-05-25T08:37:25.713Z,25.96
2019-05-25T08:38:25.679Z,30.90
2019-05-25T08:39:25.671Z,29.17
2019-05-25T08:40:25.653Z,29.02
2019-05-25T08:41:25.643Z,36.16
2019-05-25T08:42:25.636Z,32.14
2019-05-25T08:43:25.643Z,31.46
2019-05-25T08:44:25.610Z,33.76
2019-05-25T08:45:26.203Z,35.57
2019-05-25T08:46:25.623Z,34.36
2019-05-25T08:47:25.593Z,30.70
2019-05-25T08:48:25.575Z,34.20
2019-05-25T08:49:25.551Z,36.12
2019-05-25T08:50:37.690Z,32.62
2019-05-25T08:51:26.529Z,34.96
2019-05-25T08:52:25.517Z,32.84
2019-05-25T08:53:39.990Z,37.23
2019-05-25T08:54:26.496Z,33.15
2019-05-25T08:55:25.484Z,34.95
2019-05-25T08:56:25.486Z,38.05
2019-05-25T08:57:25.471Z,36.49
2019-05-25T08:58:25.611Z,36.99
2019-05-25T08:59:25.521Z,34.10
2019-05-25T09:00:25.626Z,39.33
2019-05-25T09:01:25.419Z,37.15
2019-05-25T09:02:25.485Z,43.07
2019-05-25T09:03:25.517Z,39.23
2019-05-25T09:04:25.771Z,39.35
2019-05-25T09:05:25.405Z,35.98
2019-05-25T09:06:25.428Z,40.55
2019-05-25T09:07:25.602Z,37.22
2019-05-25T09:08:25.341Z,38.14
2019-05-25T09:09:25.454Z,38.96
2019-05-25T09:10:25.319Z,37.22
2019-05-25T09:11:25.317Z,35.70
2019-05-25T09:12:25.855Z,36.79
2019-05-25T09:13:25.283Z,39.61
2019-05-25T09:14:25.274Z,35.26
2019-05-25T09:15:25.286Z,35.74
2019-05-25T09:16:25.259Z,37.36
2019-05-25T09:17:25.241Z,38.71
2019-05-25T09:18:25.266Z,42.11
2019-05-25T09:19:25.215Z,41.26
2019-05-25T09:20:25.205Z,41.09
2019-05-25T09:21:25.193Z,38.70
2019-05-25T09:22:25.193Z,37.51
2019-05-25T09:23:25.177Z,34.74
2019-05-25T09:24:25.208Z,34.13
2019-05-25T09:25:25.145Z,35.15
2019-05-25T09:26:25.135Z,31.06
2019-05-25T09:27:25.247Z,36.18
2019-05-25T09:28:25.195Z,40.12
2019-05-25T09:29:25.097Z,40.19
2019-05-25T09:30:25.090Z,37.82
2019-05-25T09:31:25.077Z,38.18
2019-05-25T09:32:25.069Z,39.07
2019-05-25T09:33:25.067Z,35.08
2019-05-25T09:34:25.045Z,25.23
2019-05-25T09:35:25.033Z,28.97
2019-05-25T09:36:25.023Z,33.76
2019-05-25T09:37:25.117Z,35.82
2019-05-25T09:38:25.007Z,41.11
2019-05-25T09:39:25.011Z,38.83
2019-05-25T09:40:25.055Z,40.16
2019-05-25T09:41:24.991Z,35.72
2019-05-25T09:42:24.959Z,36.75
2019-05-25T09:43:24.942Z,32.64
2019-05-25T09:44:24.946Z,34.80
2019-05-25T09:45:24.920Z,39.29
2019-05-25T09:46:24.910Z,38.25
2019-05-25T09:47:24.903Z,40.68
2019-05-25T09:48:24.887Z,44.64
2019-05-25T09:49:24.941Z,41.62
2019-05-25T09:50:24.881Z,39.62
2019-05-25T09:51:24.853Z,40.27
2019-05-25T09:52:24.842Z,39.52
2019-05-25T09:53:24.832Z,42.05
2019-05-25T09:54:24.819Z,34.12
2019-05-25T09:55:24.811Z,38.06
2019-05-25T09:56:24.797Z,41.60
2019-05-25T09:57:24.835Z,35.26
2019-05-25T09:58:24.791Z,32.38
2019-05-25T09:59:24.781Z,33.97
2019-05-25T10:00:24.755Z,36.46
2019-05-25T10:01:24.754Z,34.21
2019-05-25T10:02:24.728Z,33.06
2019-05-25T10:03:24.715Z,36.96
2019-05-25T10:04:24.712Z,39.50
2019-05-25T10:05:24.694Z,43.74
2019-05-25T10:06:24.705Z,43.49
2019-05-25T10:07:24.687Z,40.58
2019-05-25T10:08:24.727Z,42.66
2019-05-25T10:09:24.648Z,40.16
2019-05-25T10:10:24.654Z,41.17
2019-05-25T10:11:24.628Z,42.37
2019-05-25T10:12:24.633Z,45.96
2019-05-25T10:13:24.641Z,42.40
2019-05-25T10:14:24.593Z,41.36
2019-05-25T10:15:24.579Z,40.56
2019-05-25T10:16:24.567Z,33.91
2019-05-25T10:17:24.576Z,39.47
2019-05-25T10:18:24.569Z,35.25
2019-05-25T10:19:24.548Z,34.83
2019-05-25T10:20:24.520Z,42.62
2019-05-25T10:21:25.419Z,42.75
2019-05-25T10:22:24.503Z,46.64
2019-05-25T10:23:24.603Z,43.40
2019-05-25T10:24:24.479Z,35.30
2019-05-25T10:25:24.466Z,43.82
2019-05-25T10:26:24.457Z,42.57
2019-05-25T10:27:24.465Z,45.09
2019-05-25T10:28:24.443Z,43.29
2019-05-25T10:29:36.750Z,37.96
2019-05-25T10:30:25.412Z,44.83
2019-05-25T10:31:24.400Z,40.50
2019-05-25T10:32:24.391Z,37.26
2019-05-25T10:33:24.379Z,33.06
2019-05-25T10:34:24.389Z,41.92
2019-05-25T10:35:24.353Z,42.50
2019-05-25T10:36:24.346Z,40.46
2019-05-25T10:37:24.336Z,39.60
2019-05-25T10:38:24.847Z,40.11
2019-05-25T10:39:24.329Z,40.53
2019-05-25T10:40:24.510Z,41.60
2019-05-25T10:41:24.292Z,34.99
2019-05-25T10:42:24.301Z,30.72
2019-05-25T10:43:24.265Z,42.81
2019-05-25T10:44:24.264Z,39.84
2019-05-25T10:45:24.254Z,34.23
2019-05-25T10:46:24.361Z,40.08
2019-05-25T10:47:24.276Z,40.19
2019-05-25T10:48:24.340Z,38.73
2019-05-25T10:49:24.200Z,32.39
2019-05-25T10:50:24.219Z,42.10
2019-05-25T10:51:24.181Z,41.04
2019-05-25T10:52:24.172Z,40.54
2019-05-25T10:53:24.173Z,42.10
2019-05-25T10:54:24.148Z,34.52
2019-05-25T10:55:24.137Z,38.77
2019-05-25T10:56:24.131Z,42.24
2019-05-25T10:57:24.162Z,43.34
2019-05-25T10:58:24.099Z,47.38
2019-05-25T10:59:24.093Z,46.82
2019-05-25T11:00:24.078Z,48.88
2019-05-25T11:01:24.069Z,45.63
2019-05-25T11:02:24.060Z,43.54
2019-05-25T11:03:24.061Z,39.98
2019-05-25T11:04:24.270Z,40.81
2019-05-25T11:05:24.024Z,45.51
2019-05-25T11:06:24.023Z,40.96
2019-05-25T11:07:24.039Z,37.22
2019-05-25T11:08:24.026Z,22.63
2019-05-25T11:09:23.981Z,38.40
2019-05-25T11:10:23.970Z,40.50
2019-05-25T11:11:24.018Z,34.97
2019-05-25T11:12:26.013Z,44.21
2019-05-25T11:13:23.938Z,40.63
2019-05-25T11:14:23.942Z,36.97
2019-05-25T11:15:23.914Z,39.35
2019-05-25T11:16:23.908Z,37.23
2019-05-25T11:17:23.931Z,36.25
2019-05-25T11:18:23.899Z,41.10
2019-05-25T11:19:24.517Z,44.84
2019-05-25T11:20:23.894Z,41.75
2019-05-25T11:21:23.845Z,40.57
2019-05-25T11:22:23.833Z,46.35
2019-05-25T11:23:23.842Z,43.25
2019-05-25T11:24:23.812Z,41.38
2019-05-25T11:25:23.805Z,42.26
2019-05-25T11:26:23.792Z,39.93
2019-05-25T11:27:23.782Z,36.90
2019-05-25T11:28:23.778Z,34.86
2019-05-25T11:29:23.759Z,38.40
2019-05-25T11:30:23.760Z,34.86
2019-05-25T11:31:23.808Z,35.98
2019-05-25T11:32:23.730Z,21.98
2019-05-25T11:33:23.713Z,37.40
2019-05-25T11:34:23.708Z,45.18
2019-05-25T11:35:23.707Z,43.02
2019-05-25T11:36:23.678Z,42.03
2019-05-25T11:37:23.666Z,48.21
2019-05-25T11:38:23.663Z,49.34
2019-05-25T11:39:23.642Z,45.09
2019-05-25T11:40:23.640Z,44.13
2019-05-25T11:41:23.640Z,40.75
2019-05-25T11:42:23.633Z,43.49
2019-05-25T11:43:23.601Z,48.20
2019-05-25T11:44:23.585Z,42.45
2019-05-25T11:45:23.584Z,44.26
2019-05-25T11:46:23.565Z,36.94
2019-05-25T11:47:23.564Z,36.66
2019-05-25T11:48:23.559Z,42.87
2019-05-25T11:49:23.537Z,42.15
2019-05-25T11:50:23.540Z,42.79
2019-05-25T11:51:23.546Z,43.63
2019-05-25T11:52:23.513Z,43.24
2019-05-25T11:53:23.502Z,44.69
2019-05-25T11:54:23.476Z,43.76
2019-05-25T11:55:23.465Z,39.88
2019-05-25T11:56:23.456Z,39.81
2019-05-25T11:57:23.447Z,40.03
2019-05-25T11:58:23.440Z,39.49
2019-05-25T11:59:23.432Z,38.91
2019-05-25T12:00:25.374Z,33.10
2019-05-25T12:01:23.402Z,30.47
2019-05-25T12:02:23.393Z,26.89
2019-05-25T12:03:23.425Z,38.10
2019-05-25T12:04:23.379Z,38.73
2019-05-25T12:05:23.397Z,37.76
2019-05-25T12:06:23.342Z,35.75
2019-05-25T12:07:23.352Z,34.78
2019-05-25T12:08:23.314Z,36.67
2019-05-25T12:09:23.314Z,35.93
2019-05-25T12:10:23.321Z,34.88
2019-05-25T12:11:23.287Z,35.80
2019-05-25T12:12:23.273Z,41.73
2019-05-25T12:13:23.270Z,34.11
2019-05-25T12:14:23.254Z,35.93
2019-05-25T12:15:23.254Z,37.03
2019-05-25T12:16:23.250Z,38.82
2019-05-25T12:17:23.220Z,39.54
2019-05-25T12:18:23.211Z,36.79
2019-05-25T12:19:23.199Z,32.90
2019-05-25T12:20:23.192Z,34.49
2019-05-25T12:21:23.190Z,34.50
2019-05-25T12:22:23.167Z,29.40
2019-05-25T12:23:23.152Z,37.28
2019-05-25T12:24:23.158Z,40.70
2019-05-25T12:25:23.132Z,31.06
2019-05-25T12:26:23.124Z,35.01
2019-05-25T12:27:23.129Z,37.27
2019-05-25T12:28:23.106Z,34.68
2019-05-25T12:29:23.093Z,38.40
2019-05-25T12:30:23.079Z,35.48
2019-05-25T12:31:23.069Z,33.03
2019-05-25T12:32:23.062Z,31.56
2019-05-25T12:33:23.059Z,33.71
2019-05-25T12:34:23.037Z,39.02
2019-05-25T12:35:23.028Z,38.91
2019-05-25T12:36:23.018Z,35.25
2019-05-25T12:37:23.002Z,34.51
2019-05-25T12:38:22.998Z,35.78
2019-05-25T12:39:26.460Z,36.09
2019-05-25T12:40:22.973Z,33.35
2019-05-25T12:41:22.953Z,37.13
2019-05-25T12:42:22.941Z,35.32
2019-05-25T12:43:22.936Z,34.29
2019-05-25T12:44:22.938Z,31.98
2019-05-25T12:45:22.909Z,32.83
2019-05-25T12:46:22.903Z,30.75
2019-05-25T12:47:22.888Z,33.26
2019-05-25T12:48:22.878Z,37.78
2019-05-25T12:49:22.875Z,35.19
2019-05-25T12:50:22.872Z,37.51
2019-05-25T12:51:22.847Z,30.86
2019-05-25T12:52:22.833Z,31.09
2019-05-25T12:53:22.849Z,29.04